Terminal Aerodrome Forecast
Issued by NWS

Home | Current Version | Previous Version | Text Only | Print | Product List | Glossary On
Versions: 1 2 3 4 5 6 7 8 9 10 11 12 13 14
739
FTUS43 KGRB 261122
TAFMTW
TAF
KMTW 261122Z 2612/2712 VRB03KT 6SM BR SCT003
      TEMPO 2612/2614 P6SM NSW SCT140 SCT250
     FM261400 23005KT P6SM SKC
     FM261800 18009KT P6SM SCT060 BKN120 PROB30 2621/2701 5SM -TSRA
      BR BKN040CB
     FM270100 17003KT P6SM VCSH SCT040 BKN080
     FM270700 VRB03KT P6SM SCT080 SCT250
      TEMPO 2708/2712 4SM BR=

USA.gov is the U.S. government's official web portal to all federal, state and local government web resources and services.